Time;durP1;ratioP1;P1;durP2;ratioP2;P2;SDS_P1;SDS_P2;PMS_P1;PMS_P2;Temp;Humidity;BMP_temperature;BMP_pressure;BME280_temperature;BME280_humidity;BME280_pressure;Samples;Min_cycle;Max_cycle;Signal;HPM_P1;HPM_P2
2021/10/02 00:45:09;;;;;;;15.35;9.48;;;12.90;99.90;;;;;;4852417;29;20587;-92
2021/10/02 00:47:36;;;;;;;14.80;9.02;;;12.90;99.90;;;;;;4881547;29;20045;-92
2021/10/02 00:50:05;;;;;;;12.60;9.32;;;12.90;99.90;;;;;;4880574;29;20548;-91
2021/10/02 00:52:31;;;;;;;21.05;11.13;;;12.90;99.90;;;;;;4882039;29;20045;-94
2021/10/02 00:54:57;;;;;;;15.32;8.85;;;12.90;99.90;;;;;;4880866;29;20087;-92
2021/10/02 00:57:23;;;;;;;16.02;8.68;;;12.90;99.90;;;;;;4865899;29;20473;-95
2021/10/02 00:59:49;;;;;;;23.63;9.80;;;12.90;99.90;;;;;;4881262;29;20123;-91
2021/10/02 01:02:23;;;;;;;11.05;8.80;;;12.90;99.90;;;;;;4864648;29;21539;-94
2021/10/02 01:05:06;;;;;;;15.23;8.85;;;12.90;99.90;;;;;;4881486;29;20048;-94
2021/10/02 01:07:43;;;;;;;22.13;9.68;;;12.90;99.90;;;;;;4880842;29;20055;-90
2021/10/02 01:10:38;;;;;;;13.57;9.63;;;12.90;99.90;;;;;;4865704;29;20056;-91
2021/10/02 01:13:39;;;;;;;13.98;9.73;;;12.90;99.90;;;;;;4864714;29;20080;-91
2021/10/02 01:16:22;;;;;;;15.27;10.02;;;12.90;99.90;;;;;;4879401;29;20112;-90
2021/10/02 01:18:57;;;;;;;15.90;9.93;;;12.90;99.90;;;;;;4881306;29;20129;-92
2021/10/02 01:21:48;;;;;;;16.10;10.23;;;12.90;99.90;;;;;;4881235;29;20049;-91
2021/10/02 01:24:36;;;;;;;20.23;10.38;;;12.90;99.90;;;;;;4880246;29;20127;-94
2021/10/02 01:27:23;;;;;;;19.45;10.63;;;12.90;99.90;;;;;;4880421;29;20044;-92
2021/10/02 01:29:52;;;;;;;18.15;10.50;;;12.90;99.90;;;;;;4864426;29;20115;-91
2021/10/02 01:32:28;;;;;;;19.08;9.25;;;12.90;99.90;;;;;;4879837;29;20057;-94
2021/10/02 01:35:11;;;;;;;27.83;10.55;;;12.90;99.90;;;;;;4881401;29;20500;-91
2021/10/02 01:48:43;;;;;;;17.00;9.95;;;12.90;99.90;;;;;;4880762;29;20052;-94
2021/10/02 01:51:11;;;;;;;16.63;10.48;;;12.90;99.90;;;;;;4879884;29;20131;-93
2021/10/02 01:53:39;;;;;;;14.77;10.30;;;12.90;99.90;;;;;;4865343;29;20443;-91
2021/10/02 01:56:07;;;;;;;19.88;10.38;;;12.90;99.90;;;;;;4880103;29;20051;-95
2021/10/02 01:58:34;;;;;;;14.43;10.18;;;12.90;99.90;;;;;;4880241;29;20052;-91
2021/10/02 02:01:03;;;;;;;13.85;10.20;;;12.90;99.90;;;;;;4864402;29;20054;-90
2021/10/02 02:03:31;;;;;;;13.07;10.25;;;12.90;99.90;;;;;;4896639;29;20829;-90
2021/10/02 02:05:58;;;;;;;13.65;9.77;;;12.90;99.90;;;;;;4880050;29;20455;-89
2021/10/02 02:08:24;;;;;;;16.58;11.00;;;12.90;99.90;;;;;;4896314;29;20064;-91
2021/10/02 02:10:52;;;;;;;19.05;11.70;;;12.90;99.90;;;;;;4864473;29;20048;-92
2021/10/02 02:13:18;;;;;;;22.27;10.88;;;12.90;99.90;;;;;;4879651;29;20323;-93
2021/10/02 02:15:46;;;;;;;20.75;11.50;;;12.80;99.90;;;;;;4864241;29;20899;-91
2021/10/02 02:18:20;;;;;;;18.20;11.07;;;12.90;99.90;;;;;;4895364;29;20040;-93
2021/10/02 02:20:59;;;;;;;20.42;11.30;;;12.90;99.90;;;;;;4879440;29;20084;-88
2021/10/02 02:23:27;;;;;;;14.57;10.43;;;12.90;99.90;;;;;;4879822;29;20076;-91
2021/10/02 02:26:00;;;;;;;15.77;11.25;;;12.90;99.90;;;;;;4880041;29;20116;-91
2021/10/02 02:28:26;;;;;;;18.80;11.38;;;12.90;99.90;;;;;;4895806;29;20052;-90
2021/10/02 02:30:52;;;;;;;17.38;11.95;;;12.90;99.90;;;;;;4863896;29;20618;-92
2021/10/02 02:33:19;;;;;;;23.33;11.90;;;12.90;99.90;;;;;;4862790;29;20088;-92
2021/10/02 02:35:45;;;;;;;19.27;11.95;;;12.90;99.90;;;;;;4896467;29;20090;-91
2021/10/02 02:38:12;;;;;;;22.52;12.93;;;12.90;99.90;;;;;;4895035;29;20453;-88
2021/10/02 02:40:38;;;;;;;19.92;12.77;;;12.80;99.90;;;;;;4878860;29;20064;-89
2021/10/02 02:43:04;;;;;;;25.63;13.25;;;12.90;99.90;;;;;;4894323;29;20416;-91
2021/10/02 02:45:30;;;;;;;21.25;13.10;;;12.90;99.90;;;;;;4894958;29;20052;-91
2021/10/02 02:48:06;;;;;;;22.27;12.88;;;12.90;99.90;;;;;;4894483;29;20100;-92
2021/10/02 02:51:10;;;;;;;18.55;13.98;;;12.80;99.90;;;;;;4875982;29;20087;-92
2021/10/02 02:54:03;;;;;;;28.92;14.18;;;12.80;99.90;;;;;;4816687;29;20129;-93
2021/10/02 02:56:39;;;;;;;24.88;13.80;;;12.70;99.90;;;;;;4886067;29;20060;-94
2021/10/02 02:59:12;;;;;;;20.42;13.35;;;12.60;99.90;;;;;;4868657;29;20152;-91
2021/10/02 03:01:40;;;;;;;29.17;14.48;;;12.60;99.90;;;;;;4881647;29;20048;-95
2021/10/02 03:04:12;;;;;;;22.25;13.80;;;12.60;99.90;;;;;;4894608;29;20624;-90
2021/10/02 03:06:43;;;;;;;23.48;14.80;;;12.50;99.90;;;;;;4888956;29;20103;-96
2021/10/02 03:09:09;;;;;;;20.05;14.57;;;12.50;99.90;;;;;;4894949;29;20099;-96
2021/10/02 03:11:35;;;;;;;25.70;14.80;;;12.50;99.90;;;;;;4879682;29;20513;-95
2021/10/02 03:14:03;;;;;;;22.23;14.75;;;12.50;99.90;;;;;;4895705;29;20063;-94
2021/10/02 03:16:30;;;;;;;21.45;14.82;;;12.50;99.90;;;;;;4895014;29;20064;-92
2021/10/02 03:19:00;;;;;;;28.92;15.35;;;12.40;99.90;;;;;;4878054;29;20061;-90
2021/10/02 03:21:26;;;;;;;23.35;14.68;;;12.40;99.90;;;;;;4877629;29;20041;-90
2021/10/02 03:23:53;;;;;;;23.95;15.50;;;12.40;99.90;;;;;;4878845;29;20061;-90
2021/10/02 03:26:19;;;;;;;23.00;15.18;;;12.40;99.90;;;;;;4877979;29;20048;-89
2021/10/02 03:28:47;;;;;;;22.95;15.70;;;12.40;99.90;;;;;;4895129;29;20041;-91
2021/10/02 03:31:13;;;;;;;29.77;15.93;;;12.40;99.90;;;;;;4877377;29;20119;-90
2021/10/02 03:33:40;;;;;;;25.70;16.70;;;12.30;99.90;;;;;;4878256;29;20526;-89
2021/10/02 03:36:06;;;;;;;28.50;16.50;;;12.30;99.90;;;;;;4862705;29;20052;-87
2021/10/02 03:38:32;;;;;;;28.80;16.85;;;12.30;99.90;;;;;;4877622;29;20132;-92
2021/10/02 03:40:59;;;;;;;26.90;16.35;;;12.30;99.90;;;;;;4894879;29;20139;-91
2021/10/02 03:43:34;;;;;;;34.53;17.73;;;12.20;99.90;;;;;;4893940;29;20643;-91
2021/10/02 03:46:00;;;;;;;27.98;17.48;;;12.20;99.90;;;;;;4878483;29;20131;-94
2021/10/02 03:48:27;;;;;;;34.72;18.13;;;12.20;99.90;;;;;;4893168;29;20048;-91
2021/10/02 03:50:52;;;;;;;32.13;19.42;;;12.10;99.90;;;;;;4878208;29;20405;-88
2021/10/02 03:53:19;;;;;;;26.80;18.05;;;12.10;99.90;;;;;;4877407;29;20052;-89
2021/10/02 03:55:45;;;;;;;28.27;17.77;;;12.10;99.90;;;;;;4894657;29;20119;-89
2021/10/02 03:58:11;;;;;;;32.47;17.27;;;12.10;99.90;;;;;;4893474;29;20585;-89
2021/10/02 04:00:36;;;;;;;31.90;18.35;;;12.10;99.90;;;;;;4877850;29;20048;-90
2021/10/02 04:03:02;;;;;;;37.95;19.10;;;12.10;99.90;;;;;;4877378;29;20091;-91
2021/10/02 04:05:28;;;;;;;36.58;19.55;;;12.10;99.90;;;;;;4876824;29;20246;-90
2021/10/02 04:07:53;;;;;;;28.25;18.63;;;12.10;99.90;;;;;;4846991;29;20448;-89
2021/10/02 04:10:19;;;;;;;35.60;18.38;;;12.10;99.90;;;;;;4893796;29;20059;-91
2021/10/02 04:12:45;;;;;;;35.45;18.83;;;12.10;99.90;;;;;;4877925;29;20048;-90
2021/10/02 04:15:10;;;;;;;26.10;16.67;;;12.10;99.90;;;;;;4875970;29;20088;-89
2021/10/02 04:17:36;;;;;;;23.38;17.25;;;12.10;99.90;;;;;;4877143;29;20056;-89
2021/10/02 04:20:04;;;;;;;25.33;17.50;;;12.10;99.90;;;;;;4877618;29;20059;-90
2021/10/02 04:22:30;;;;;;;23.52;17.10;;;12.10;99.90;;;;;;4893371;29;20554;-88
2021/10/02 04:24:55;;;;;;;31.45;17.98;;;12.10;99.90;;;;;;4894372;29;20052;-88
2021/10/02 04:27:21;;;;;;;31.75;18.67;;;12.10;99.90;;;;;;4876621;29;20049;-90
2021/10/02 04:29:47;;;;;;;23.00;16.75;;;12.10;99.90;;;;;;4893861;29;20549;-90
2021/10/02 04:32:13;;;;;;;38.05;20.13;;;12.10;99.90;;;;;;4876819;29;20055;-91
2021/10/02 04:34:39;;;;;;;39.83;20.83;;;12.10;99.90;;;;;;4846587;29;20056;-89
2021/10/02 04:37:05;;;;;;;28.50;18.23;;;12.10;99.90;;;;;;4878438;29;20078;-96
2021/10/02 04:39:30;;;;;;;31.90;19.23;;;12.00;99.90;;;;;;4877433;29;20044;-93
2021/10/02 04:41:56;;;;;;;38.05;18.73;;;12.00;99.90;;;;;;4894394;29;20040;-94
2021/10/02 04:44:22;;;;;;;26.75;17.17;;;11.90;99.90;;;;;;4876750;29;20465;-94
2021/10/02 04:46:48;;;;;;;27.70;18.38;;;11.90;99.90;;;;;;4878059;29;20087;-95
2021/10/02 04:49:13;;;;;;;30.10;18.45;;;11.90;99.90;;;;;;4861946;29;20421;-90
2021/10/02 04:51:40;;;;;;;32.08;17.45;;;11.90;99.90;;;;;;4861912;29;20049;-93
2021/10/02 04:54:06;;;;;;;32.30;17.75;;;11.80;99.90;;;;;;4862523;29;20063;-94
2021/10/02 04:56:32;;;;;;;30.95;19.15;;;11.90;99.90;;;;;;4861716;29;20144;-94
2021/10/02 04:58:59;;;;;;;29.67;16.75;;;11.80;99.90;;;;;;4862543;29;20408;-90
2021/10/02 05:01:24;;;;;;;29.42;18.10;;;11.90;99.90;;;;;;4875935;29;20037;-90
2021/10/02 05:03:51;;;;;;;28.58;18.52;;;11.90;99.90;;;;;;4877251;29;20048;-91
2021/10/02 05:06:17;;;;;;;27.98;18.30;;;11.90;99.90;;;;;;4893373;29;20048;-92
2021/10/02 05:08:43;;;;;;;28.65;18.55;;;11.90;99.90;;;;;;4877533;29;20060;-90
2021/10/02 05:11:09;;;;;;;30.52;18.73;;;12.00;99.90;;;;;;4846146;29;20051;-90
2021/10/02 05:13:35;;;;;;;32.80;18.92;;;12.00;99.90;;;;;;4876509;29;20083;-90
2021/10/02 05:16:02;;;;;;;33.90;19.00;;;12.00;99.90;;;;;;4861250;29;20060;-90
2021/10/02 05:18:28;;;;;;;31.48;20.67;;;12.00;99.90;;;;;;4893018;29;20091;-90
2021/10/02 05:20:53;;;;;;;27.35;18.85;;;12.00;99.90;;;;;;4893290;29;20045;-91
2021/10/02 05:23:19;;;;;;;33.67;20.20;;;12.00;99.90;;;;;;4893204;29;20056;-94
2021/10/02 05:25:45;;;;;;;26.95;18.92;;;12.10;99.90;;;;;;4861788;29;20044;-93
2021/10/02 05:28:11;;;;;;;28.55;18.90;;;12.00;99.90;;;;;;4897363;29;20120;-90
2021/10/02 05:30:36;;;;;;;26.95;17.98;;;12.00;99.90;;;;;;4880349;29;20060;-92
2021/10/02 05:33:05;;;;;;;35.53;19.48;;;12.00;99.90;;;;;;4880000;29;20052;-92
2021/10/02 05:35:32;;;;;;;29.25;20.23;;;12.00;99.90;;;;;;4880106;29;20048;-92
2021/10/02 05:37:59;;;;;;;26.73;18.55;;;12.00;99.90;;;;;;4850026;29;20060;-93
2021/10/02 05:40:25;;;;;;;25.25;18.70;;;12.00;99.90;;;;;;4880328;29;20084;-91
2021/10/02 05:42:50;;;;;;;31.02;18.70;;;12.00;99.90;;;;;;4880883;29;20087;-90
2021/10/02 05:45:16;;;;;;;36.97;19.80;;;12.00;99.90;;;;;;4864317;29;20560;-88
2021/10/02 05:47:42;;;;;;;28.33;18.85;;;12.00;99.90;;;;;;4880444;29;20075;-91
2021/10/02 05:50:08;;;;;;;35.95;20.80;;;12.00;99.90;;;;;;4864819;29;20096;-91
2021/10/02 05:52:34;;;;;;;36.47;22.40;;;12.00;99.90;;;;;;4895836;29;20067;-88
2021/10/02 05:54:59;;;;;;;40.15;22.42;;;12.00;99.90;;;;;;4879743;29;20045;-91
2021/10/02 05:57:25;;;;;;;36.90;22.08;;;12.10;99.90;;;;;;4875356;29;20138;-91
2021/10/02 05:59:51;;;;;;;29.70;20.35;;;12.10;99.90;;;;;;4864609;29;20067;-91
2021/10/02 06:02:17;;;;;;;27.20;18.58;;;12.10;99.90;;;;;;4878744;29;20040;-88
2021/10/02 06:04:42;;;;;;;30.00;18.55;;;12.10;99.90;;;;;;4880018;29;20063;-93
2021/10/02 06:07:08;;;;;;;29.60;18.40;;;12.10;99.90;;;;;;4864378;29;20520;-91
2021/10/02 06:09:34;;;;;;;28.25;19.92;;;12.10;99.90;;;;;;4878674;29;20052;-89
2021/10/02 06:11:59;;;;;;;27.95;18.60;;;12.20;99.90;;;;;;4896989;29;20064;-89
2021/10/02 06:14:25;;;;;;;31.17;19.17;;;12.20;99.90;;;;;;4868053;29;20045;-89
2021/10/02 06:16:51;;;;;;;26.48;19.70;;;12.20;99.90;;;;;;4879782;29;20112;-93
2021/10/02 06:19:17;;;;;;;30.50;19.50;;;12.20;99.90;;;;;;4878788;29;20135;-89
2021/10/02 06:21:44;;;;;;;32.83;19.08;;;12.30;99.90;;;;;;4879271;29;20510;-92
2021/10/02 06:24:10;;;;;;;29.38;19.83;;;12.30;99.90;;;;;;4878766;29;20159;-89
2021/10/02 06:26:37;;;;;;;29.83;20.17;;;12.30;99.90;;;;;;4877954;29;20051;-92
2021/10/02 06:29:04;;;;;;;34.42;20.63;;;12.30;99.90;;;;;;4895521;29;20053;-90
2021/10/02 06:31:29;;;;;;;34.30;21.73;;;12.30;99.90;;;;;;4881400;29;20962;-93
2021/10/02 06:33:55;;;;;;;32.63;21.30;;;12.30;99.90;;;;;;4880458;29;20078;-91
2021/10/02 06:36:21;;;;;;;31.38;20.50;;;12.40;99.90;;;;;;4905977;29;20127;-88
2021/10/02 06:38:47;;;;;;;36.10;21.67;;;12.40;99.90;;;;;;4890569;29;20044;-90
2021/10/02 06:41:13;;;;;;;39.03;23.75;;;12.40;99.90;;;;;;4874372;29;20043;-89
2021/10/02 06:43:38;;;;;;;36.50;22.40;;;12.40;99.90;;;;;;4874146;29;20156;-91
2021/10/02 06:46:05;;;;;;;45.67;23.83;;;12.40;99.90;;;;;;4887726;29;20512;-92
2021/10/02 06:48:32;;;;;;;39.33;23.15;;;12.40;99.90;;;;;;4873741;29;20056;-92
2021/10/02 06:50:58;;;;;;;41.20;23.80;;;12.40;99.90;;;;;;4888366;29;20052;-89
2021/10/02 06:53:23;;;;;;;44.58;24.45;;;12.40;99.90;;;;;;4872187;29;20379;-88
2021/10/02 06:55:49;;;;;;;34.85;19.48;;;12.40;99.90;;;;;;4887341;29;20048;-90
2021/10/02 06:58:15;;;;;;;33.35;19.88;;;12.40;99.90;;;;;;4873014;29;20048;-93
2021/10/02 07:00:40;;;;;;;18.98;13.90;;;12.30;99.90;;;;;;4841167;29;20654;-93
2021/10/02 07:03:07;;;;;;;19.83;11.38;;;12.30;99.90;;;;;;4872111;29;20135;-91
2021/10/02 07:05:33;;;;;;;19.40;11.00;;;12.30;99.90;;;;;;4881697;29;20139;-92
2021/10/02 07:07:59;;;;;;;11.93;9.18;;;12.30;99.90;;;;;;4890605;29;20059;-93
2021/10/02 07:10:25;;;;;;;20.65;11.05;;;12.20;99.90;;;;;;4881232;29;20049;-89
2021/10/02 07:12:52;;;;;;;25.70;13.25;;;12.20;99.90;;;;;;4892830;29;20485;-89
2021/10/02 07:15:19;;;;;;;21.15;11.73;;;12.20;99.90;;;;;;4863118;29;20060;-92
2021/10/02 07:17:45;;;;;;;13.25;8.90;;;12.20;99.90;;;;;;4878895;29;21041;-92
2021/10/02 07:20:14;;;;;;;8.88;7.32;;;12.20;99.90;;;;;;4878559;29;20056;-91
2021/10/02 07:22:40;;;;;;;15.13;8.13;;;12.10;99.90;;;;;;4846840;29;20096;-92
2021/10/02 07:25:09;;;;;;;17.02;9.18;;;12.20;99.90;;;;;;4847468;29;20142;-90
2021/10/02 07:27:35;;;;;;;13.60;9.57;;;12.20;99.90;;;;;;4862181;29;20056;-91
2021/10/02 07:30:01;;;;;;;16.58;9.32;;;12.20;99.90;;;;;;4878725;29;20048;-94
2021/10/02 07:32:27;;;;;;;18.48;9.50;;;12.20;99.90;;;;;;4877868;29;20060;-90
2021/10/02 07:34:53;;;;;;;15.68;10.40;;;12.20;99.90;;;;;;4863201;29;20056;-92
2021/10/02 07:37:18;;;;;;;22.13;10.48;;;12.20;99.90;;;;;;4872595;29;20135;-92
2021/10/02 07:39:45;;;;;;;15.40;10.35;;;12.30;99.90;;;;;;4877520;29;20699;-93
2021/10/02 07:42:16;;;;;;;20.30;12.35;;;12.30;99.90;;;;;;4878529;29;20049;-92
2021/10/02 07:44:56;;;;;;;15.13;10.23;;;12.30;99.90;;;;;;4861951;29;20056;-92
2021/10/02 07:47:23;;;;;;;16.40;11.80;;;12.40;99.90;;;;;;4879340;29;20120;-92
2021/10/02 07:49:50;;;;;;;20.70;12.68;;;12.40;99.90;;;;;;4893476;29;20063;-91
2021/10/02 07:52:18;;;;;;;19.58;11.82;;;12.40;99.90;;;;;;4894206;29;20551;-93
2021/10/02 07:54:45;;;;;;;20.85;11.40;;;12.50;99.90;;;;;;4876783;29;20068;-89
2021/10/02 07:57:11;;;;;;;15.38;10.50;;;12.50;99.90;;;;;;4877977;29;20131;-90
2021/10/02 07:59:37;;;;;;;15.63;8.95;;;12.60;99.90;;;;;;4877108;29;20104;-92
2021/10/02 08:02:07;;;;;;;14.95;7.28;;;12.60;99.90;;;;;;4879936;29;20041;-89
2021/10/02 08:04:33;;;;;;;10.20;6.22;;;12.70;99.90;;;;;;4878101;29;20396;-92
2021/10/02 08:07:01;;;;;;;13.05;5.18;;;12.70;99.90;;;;;;4878200;29;20073;-92
2021/10/02 08:09:26;;;;;;;12.75;6.50;;;12.70;99.90;;;;;;4877265;29;20132;-89
2021/10/02 08:11:52;;;;;;;12.80;6.78;;;12.70;99.90;;;;;;4879256;29;20104;-92
2021/10/02 08:14:19;;;;;;;13.32;6.72;;;12.70;99.90;;;;;;4879302;29;20049;-92
2021/10/02 08:16:47;;;;;;;8.93;6.75;;;12.80;99.90;;;;;;4876997;29;20104;-93
2021/10/02 08:19:18;;;;;;;10.35;7.25;;;12.70;99.90;;;;;;4878240;29;20040;-92
2021/10/02 08:21:44;;;;;;;9.65;6.93;;;12.80;99.90;;;;;;4876475;29;20135;-91
2021/10/02 08:24:10;;;;;;;12.75;7.00;;;12.80;99.90;;;;;;4879612;29;20051;-91
2021/10/02 08:26:38;;;;;;;13.73;7.22;;;12.90;99.90;;;;;;4882246;29;20056;-93
2021/10/02 08:29:04;;;;;;;10.63;6.80;;;12.90;99.90;;;;;;4863891;29;20692;-93
2021/10/02 08:31:31;;;;;;;12.32;7.20;;;12.90;99.90;;;;;;4897773;29;20045;-91
2021/10/02 08:33:57;;;;;;;15.20;8.13;;;13.00;99.90;;;;;;4878306;29;20052;-95
2021/10/02 08:36:23;;;;;;;17.23;8.88;;;13.00;99.90;;;;;;4872194;29;20055;-96
2021/10/02 08:38:48;;;;;;;14.25;9.73;;;13.10;99.90;;;;;;4860225;29;20119;-92
2021/10/02 08:41:18;;;;;;;17.10;11.50;;;13.20;99.90;;;;;;4861767;29;20108;-93
2021/10/02 08:43:49;;;;;;;15.38;11.88;;;13.30;99.90;;;;;;4877394;29;20506;-95
2021/10/02 08:46:16;;;;;;;22.52;14.15;;;13.30;99.90;;;;;;4893058;29;20136;-92
2021/10/02 08:49:04;;;;;;;27.38;16.58;;;13.40;99.90;;;;;;4876544;29;20445;-93
2021/10/02 08:51:29;;;;;;;24.42;15.98;;;13.50;99.90;;;;;;4881907;29;20552;-93
2021/10/02 08:53:56;;;;;;;25.02;16.45;;;13.60;99.90;;;;;;4877072;29;20147;-93
2021/10/02 08:56:22;;;;;;;24.98;16.25;;;13.70;99.90;;;;;;4877939;29;20052;-93
2021/10/02 08:58:48;;;;;;;29.45;17.75;;;13.80;99.90;;;;;;4837407;29;20060;-93
2021/10/02 09:01:15;;;;;;;25.00;16.90;;;14.00;99.90;;;;;;4879767;29;20441;-94
2021/10/02 09:03:40;;;;;;;23.50;17.58;;;14.10;99.90;;;;;;4863864;29;20049;-93
2021/10/02 09:06:06;;;;;;;31.00;16.83;;;14.20;99.90;;;;;;4897780;29;20434;-93
2021/10/02 09:08:32;;;;;;;26.38;16.83;;;14.40;99.90;;;;;;4897148;29;20048;-92
2021/10/02 09:10:58;;;;;;;24.75;16.23;;;14.50;99.90;;;;;;4854566;29;20045;-94
2021/10/02 09:13:23;;;;;;;21.88;16.33;;;14.60;99.90;;;;;;4877237;29;20188;-92
2021/10/02 09:15:49;;;;;;;23.05;16.92;;;14.70;99.90;;;;;;4873285;29;20053;-94
2021/10/02 09:18:15;;;;;;;25.45;16.45;;;14.80;99.90;;;;;;4867173;29;20056;-94
2021/10/02 09:20:41;;;;;;;26.40;16.55;;;14.90;99.90;;;;;;4866816;29;20055;-94
2021/10/02 09:23:08;;;;;;;41.05;15.68;;;14.90;99.90;;;;;;4866899;29;20181;-95
2021/10/02 09:25:36;;;;;;;21.13;15.35;;;15.00;99.90;;;;;;4874375;29;20128;-95
2021/10/02 09:28:14;;;;;;;20.33;13.68;;;15.10;99.90;;;;;;4877260;29;20139;-93
2021/10/02 09:30:45;;;;;;;21.30;14.05;;;15.20;99.90;;;;;;4844532;29;20088;-88
2021/10/02 09:33:14;;;;;;;18.02;11.70;;;15.20;99.90;;;;;;4853915;29;20057;-90
2021/10/02 09:35:42;;;;;;;18.13;12.30;;;15.20;99.90;;;;;;4856887;29;20564;-91
2021/10/02 09:38:13;;;;;;;19.58;12.18;;;15.20;99.90;;;;;;4863806;29;20475;-94
2021/10/02 09:40:47;;;;;;;18.88;10.68;;;15.30;99.90;;;;;;4858962;29;20053;-91
2021/10/02 09:43:13;;;;;;;14.25;9.85;;;15.20;99.90;;;;;;4859545;29;20057;-89
2021/10/02 09:45:40;;;;;;;17.38;11.07;;;15.30;99.90;;;;;;4816937;29;20055;-91
2021/10/02 09:48:09;;;;;;;16.13;10.52;;;15.30;99.90;;;;;;4832437;29;20512;-93
2021/10/02 09:50:41;;;;;;;23.27;11.13;;;15.30;99.90;;;;;;4859009;29;20056;-94
2021/10/02 09:53:08;;;;;;;19.67;11.25;;;15.40;99.90;;;;;;4865397;29;20516;-93
2021/10/02 09:55:37;;;;;;;15.15;9.70;;;15.40;99.90;;;;;;4851791;29;20060;-95
2021/10/02 09:58:07;;;;;;;15.38;10.45;;;15.50;99.90;;;;;;4850493;29;20501;-94
2021/10/02 10:00:34;;;;;;;15.50;9.27;;;15.50;99.90;;;;;;4863980;29;20055;-93
2021/10/02 10:03:05;;;;;;;18.65;9.98;;;15.60;99.90;;;;;;4850222;29;20090;-93
2021/10/02 10:05:36;;;;;;;16.00;8.40;;;15.70;99.90;;;;;;4866433;29;20052;-94
2021/10/02 10:08:07;;;;;;;17.92;8.57;;;15.80;99.90;;;;;;4864950;29;20504;-90
2021/10/02 10:10:35;;;;;;;14.90;8.85;;;15.80;99.90;;;;;;4865125;29;20053;-94
2021/10/02 10:13:21;;;;;;;14.57;7.95;;;15.90;99.90;;;;;;4869875;29;20063;-96
2021/10/02 10:15:48;;;;;;;12.70;8.57;;;16.00;99.90;;;;;;4866368;29;20072;-96
2021/10/02 10:18:30;;;;;;;11.38;7.93;;;16.10;99.90;;;;;;4880940;29;20136;-96
2021/10/02 10:20:59;;;;;;;18.15;8.27;;;16.00;99.90;;;;;;4902808;29;20052;-96
2021/10/02 10:23:32;;;;;;;19.10;8.82;;;15.90;99.90;;;;;;4884710;29;20064;-96
2021/10/02 10:26:01;;;;;;;14.38;9.43;;;15.90;99.90;;;;;;4886074;29;20045;-96
2021/10/02 10:28:32;;;;;;;21.52;9.75;;;15.80;99.90;;;;;;4878478;29;20056;-96
2021/10/02 10:31:13;;;;;;;12.38;9.25;;;15.80;99.90;;;;;;4883785;29;20053;-96
2021/10/02 10:33:42;;;;;;;13.20;9.38;;;15.70;99.90;;;;;;4874892;29;20119;-95
2021/10/02 10:36:09;;;;;;;14.88;9.18;;;15.70;99.90;;;;;;4892386;29;20528;-96
2021/10/02 10:38:35;;;;;;;14.70;8.98;;;15.70;99.90;;;;;;4869726;29;20048;-94
2021/10/02 10:41:03;;;;;;;13.85;8.10;;;15.80;99.90;;;;;;4886654;29;20109;-94
2021/10/02 10:43:30;;;;;;;12.88;7.88;;;15.90;99.90;;;;;;4865588;29;20059;-93
2021/10/02 10:46:01;;;;;;;23.10;7.82;;;16.10;99.90;;;;;;4879665;29;20136;-93
2021/10/02 10:48:27;;;;;;;13.15;7.93;;;16.10;99.90;;;;;;4865688;29;20064;-93
2021/10/02 10:50:53;;;;;;;14.63;8.40;;;16.20;99.90;;;;;;4866483;29;20553;-93
2021/10/02 10:53:19;;;;;;;12.02;8.15;;;16.30;99.90;;;;;;4882893;29;20150;-92
2021/10/02 10:55:56;;;;;;;20.48;8.45;;;16.40;99.90;;;;;;4880000;29;20108;-93
2021/10/02 10:58:28;;;;;;;20.05;7.97;;;16.60;99.90;;;;;;4883053;29;20056;-94
2021/10/02 11:00:56;;;;;;;15.43;8.38;;;16.60;99.90;;;;;;4871708;29;20049;-94
2021/10/02 11:03:42;;;;;;;11.93;7.30;;;16.70;99.90;;;;;;4882726;29;20045;-89
2021/10/02 11:06:10;;;;;;;12.85;7.45;;;16.80;99.90;;;;;;4892009;29;20048;-89
2021/10/02 11:08:57;;;;;;;14.55;7.22;;;16.80;99.90;;;;;;4880024;29;20420;-90
2021/10/02 11:11:51;;;;;;;18.45;7.13;;;17.00;99.90;;;;;;4868336;29;20520;-89
2021/10/02 11:14:46;;;;;;;9.50;5.93;;;17.00;99.90;;;;;;4880381;29;20099;-90
2021/10/02 11:17:13;;;;;;;18.92;6.60;;;17.00;99.90;;;;;;4837307;29;20095;-90
2021/10/02 11:19:43;;;;;;;9.07;5.80;;;16.90;99.90;;;;;;4862055;29;20136;-89
2021/10/02 11:25:22;;;;;;;12.27;6.85;;;16.80;99.90;;;;;;4854428;29;19928;-90
2021/10/02 11:27:48;;;;;;;9.43;6.18;;;16.70;99.90;;;;;;4861095;29;20108;-90
2021/10/02 11:30:17;;;;;;;12.10;5.43;;;16.80;99.90;;;;;;4858244;29;20056;-90
2021/10/02 11:32:43;;;;;;;8.73;4.47;;;16.80;99.90;;;;;;4858487;29;20135;-91
2021/10/02 11:35:18;;;;;;;11.10;5.15;;;16.80;99.90;;;;;;4844704;29;20127;-90
2021/10/02 11:37:49;;;;;;;9.65;5.15;;;16.80;99.90;;;;;;4863171;29;20059;-90
2021/10/02 11:40:36;;;;;;;7.40;4.82;;;16.70;99.90;;;;;;4844846;29;20061;-91
2021/10/02 11:43:12;;;;;;;8.75;3.72;;;16.70;99.90;;;;;;4847512;29;20055;-94
2021/10/02 11:45:38;;;;;;;7.25;3.65;;;16.70;99.90;;;;;;4859990;29;20155;-92
2021/10/02 11:48:35;;;;;;;11.45;3.67;;;16.70;99.90;;;;;;4859330;29;20067;-92
2021/10/02 11:51:15;;;;;;;6.47;3.35;;;16.80;99.90;;;;;;4836041;29;20053;-91
2021/10/02 11:53:45;;;;;;;;;;;16.80;99.90;;;;;;4847096;29;20383;-91
2021/10/02 11:56:12;;;;;;;;;;;16.90;99.90;;;;;;4846820;29;20408;-91
2021/10/02 11:58:44;;;;;;;9.15;3.38;;;16.90;99.90;;;;;;4860963;29;19928;-90
2021/10/02 12:01:38;;;;;;;4.50;2.65;;;16.90;99.90;;;;;;4862537;29;20045;-91
2021/10/02 12:04:15;;;;;;;4.45;2.75;;;16.90;99.90;;;;;;4860677;29;20056;-91
2021/10/02 12:06:46;;;;;;;6.78;2.67;;;16.90;99.90;;;;;;4862625;29;20056;-92
2021/10/02 12:09:17;;;;;;;5.97;2.20;;;16.80;99.90;;;;;;4878668;29;20052;-91
2021/10/02 12:11:51;;;;;;;4.53;1.83;;;16.80;99.90;;;;;;4860619;29;20084;-91
2021/10/02 12:14:22;;;;;;;7.80;1.70;;;16.80;99.90;;;;;;4845326;29;20056;-91
2021/10/02 12:16:54;;;;;;;8.52;2.03;;;16.70;99.90;;;;;;4862535;29;20527;-92
2021/10/02 12:19:20;;;;;;;4.85;1.40;;;16.60;99.90;;;;;;4873305;29;20556;-91
2021/10/02 12:22:01;;;;;;;6.72;1.77;;;16.60;99.90;;;;;;4863183;29;20088;-92
2021/10/02 12:24:32;;;;;;;4.47;1.63;;;16.70;99.90;;;;;;4878912;29;20057;-91
2021/10/02 12:26:57;;;;;;;6.32;1.80;;;16.70;99.90;;;;;;4862863;29;20092;-91
2021/10/02 12:29:28;;;;;;;6.53;1.80;;;16.70;99.90;;;;;;4878812;29;20147;-91
2021/10/02 12:32:21;;;;;;;4.35;1.85;;;16.60;99.90;;;;;;4890931;29;20049;-91
2021/10/02 12:34:49;;;;;;;6.90;1.65;;;16.50;99.90;;;;;;4892859;29;20064;-93
2021/10/02 12:37:16;;;;;;;7.15;2.53;;;16.40;99.90;;;;;;4883804;29;20045;-91
2021/10/02 12:39:49;;;;;;;8.63;1.77;;;16.40;99.90;;;;;;4878688;29;20059;-91
2021/10/02 12:42:39;;;;;;;12.20;1.65;;;16.40;99.90;;;;;;4871735;29;20083;-91
2021/10/02 12:45:29;;;;;;;6.28;1.70;;;16.40;99.90;;;;;;4859811;29;20154;-90
2021/10/02 12:48:01;;;;;;;5.95;1.50;;;16.30;99.90;;;;;;4872333;29;20052;-91
2021/10/02 12:50:45;;;;;;;8.88;1.98;;;16.40;99.90;;;;;;4860712;29;20053;-91
2021/10/02 12:53:12;;;;;;;9.90;1.75;;;16.40;99.90;;;;;;4879435;29;20645;-91
2021/10/02 12:55:38;;;;;;;6.60;1.30;;;16.40;99.90;;;;;;4883804;29;20108;-91
2021/10/02 12:58:15;;;;;;;5.93;1.38;;;16.40;99.90;;;;;;4862814;29;20080;-91
2021/10/02 13:00:42;;;;;;;6.03;1.60;;;16.40;99.90;;;;;;4878597;29;20053;-91
2021/10/02 13:03:10;;;;;;;6.57;2.13;;;16.40;99.90;;;;;;4884595;29;20461;-91
2021/10/02 13:05:37;;;;;;;12.57;1.77;;;16.40;99.90;;;;;;4886578;29;20413;-91
2021/10/02 13:08:22;;;;;;;7.30;1.45;;;16.40;99.90;;;;;;4884964;29;20520;-91
2021/10/02 13:10:48;;;;;;;8.38;1.60;;;16.40;99.90;;;;;;4882663;29;20056;-91
2021/10/02 13:13:18;;;;;;;7.75;1.55;;;16.40;99.90;;;;;;4847506;29;20052;-90
2021/10/02 13:15:48;;;;;;;9.35;1.80;;;16.40;99.90;;;;;;4862800;29;20405;-90
2021/10/02 13:18:25;;;;;;;8.15;2.15;;;16.40;99.90;;;;;;4878193;29;20056;-90
2021/10/02 13:20:54;;;;;;;13.57;2.58;;;16.30;99.90;;;;;;4862914;29;20096;-92
2021/10/02 13:23:30;;;;;;;7.20;1.58;;;16.30;99.90;;;;;;4895098;29;20104;-90
2021/10/02 13:26:03;;;;;;;8.63;1.80;;;16.30;99.90;;;;;;4878115;29;20063;-92
2021/10/02 13:28:34;;;;;;;10.02;2.17;;;16.30;99.90;;;;;;4862913;29;20060;-90
2021/10/02 13:31:15;;;;;;;8.07;2.00;;;16.30;99.90;;;;;;4877426;29;20123;-90
2021/10/02 13:33:47;;;;;;;12.00;2.00;;;16.20;99.90;;;;;;4863063;29;20052;-92
2021/10/02 13:36:45;;;;;;;5.95;2.10;;;16.20;99.90;;;;;;4873783;29;20190;-92
2021/10/02 13:39:14;;;;;;;7.50;1.85;;;16.20;99.90;;;;;;4877426;29;20133;-90
2021/10/02 13:41:43;;;;;;;13.02;1.98;;;16.20;99.90;;;;;;4878230;29;20407;-90
2021/10/02 13:44:09;;;;;;;4.43;2.25;;;16.30;99.90;;;;;;4894084;29;20056;-90